createdAt,value
2019-03-26T00:05:06.743Z,16.90
2019-03-26T00:10:31.939Z,12.80
2019-03-26T00:15:58.074Z,14.63
2019-03-26T00:21:28.285Z,15.40
2019-03-26T00:26:52.658Z,15.33
2019-03-26T00:32:17.972Z,21.20
2019-03-26T00:37:42.160Z,19.47
2019-03-26T00:43:07.865Z,16.10
2019-03-26T00:48:32.235Z,17.50
2019-03-26T00:53:56.450Z,19.33
2019-03-26T00:59:20.571Z,20.13
2019-03-26T01:04:45.104Z,19.63
2019-03-26T01:10:15.908Z,19.13
2019-03-26T01:15:40.460Z,21.57
2019-03-26T01:21:06.249Z,23.10
2019-03-26T01:26:30.814Z,18.37
2019-03-26T01:31:55.604Z,20.90
2019-03-26T01:37:20.400Z,23.07
2019-03-26T01:42:45.880Z,22.23
2019-03-26T01:48:11.019Z,27.83
2019-03-26T01:53:36.964Z,26.60
2019-03-26T01:59:02.619Z,32.70
2019-03-26T02:04:26.743Z,26.37
2019-03-26T02:09:51.936Z,27.37
2019-03-26T02:15:32.311Z,32.23
2019-03-26T02:20:56.861Z,31.30
2019-03-26T02:26:21.041Z,27.57
2019-03-26T02:31:46.821Z,35.17
2019-03-26T02:37:11.411Z,29.17
2019-03-26T02:42:38.072Z,31.57
2019-03-26T02:48:04.068Z,40.40
2019-03-26T02:53:28.778Z,33.10
2019-03-26T02:58:53.626Z,40.07
2019-03-26T03:04:17.908Z,38.27
2019-03-26T03:09:43.362Z,39.93
2019-03-26T03:15:08.629Z,33.37
2019-03-26T03:20:32.896Z,39.27
2019-03-26T03:25:58.369Z,38.40
2019-03-26T03:31:23.674Z,38.30
2019-03-26T03:36:49.169Z,37.03
2019-03-26T03:42:14.373Z,38.17
2019-03-26T03:47:40.313Z,29.80
2019-03-26T03:53:06.603Z,32.80
2019-03-26T03:58:32.763Z,41.27
2019-03-26T04:03:57.134Z,30.03
2019-03-26T04:09:22.390Z,30.23
2019-03-26T04:14:47.399Z,27.50
2019-03-26T04:20:12.688Z,27.33
2019-03-26T04:25:37.890Z,29.40
2019-03-26T04:31:02.437Z,29.93
2019-03-26T04:36:27.935Z,32.63
2019-03-26T04:41:53.726Z,35.47
2019-03-26T04:47:18.707Z,28.13
2019-03-26T04:52:44.206Z,26.00
2019-03-26T04:58:09.656Z,22.70
2019-03-26T05:03:34.120Z,32.70
2019-03-26T05:08:58.559Z,29.63
2019-03-26T05:14:23.823Z,30.40
2019-03-26T05:19:48.986Z,21.77
2019-03-26T05:25:14.792Z,25.27
2019-03-26T05:30:39.536Z,22.47
2019-03-26T05:36:05.033Z,20.27
2019-03-26T05:41:29.987Z,17.70
2019-03-26T05:46:55.216Z,18.50
2019-03-26T05:52:20.247Z,28.13
2019-03-26T05:57:45.464Z,20.60
2019-03-26T06:03:11.019Z,24.17
2019-03-26T06:08:36.052Z,27.70
2019-03-26T06:14:01.066Z,20.50
2019-03-26T06:19:25.666Z,25.63
2019-03-26T06:24:51.213Z,22.17
2019-03-26T06:30:16.320Z,23.03
2019-03-26T06:35:41.129Z,20.30
2019-03-26T06:41:06.313Z,22.47
2019-03-26T06:46:31.675Z,19.70
2019-03-26T06:51:56.366Z,19.20
2019-03-26T06:57:20.834Z,22.23
2019-03-26T07:02:44.990Z,17.03
2019-03-26T07:08:10.232Z,20.30
2019-03-26T07:13:35.180Z,19.90
2019-03-26T07:19:00.361Z,23.30
2019-03-26T07:24:25.034Z,17.57
2019-03-26T07:29:49.982Z,15.77
2019-03-26T07:35:14.971Z,18.97
2019-03-26T07:40:39.841Z,16.33
2019-03-26T07:46:04.736Z,23.30
2019-03-26T07:51:29.340Z,15.40
2019-03-26T07:56:54.620Z,23.50
2019-03-26T08:02:19.888Z,15.73
2019-03-26T08:07:57.477Z,13.23
2019-03-26T08:13:11.430Z,14.57
2019-03-26T08:18:36.822Z,18.57
2019-03-26T08:24:01.478Z,19.13
2019-03-26T08:29:26.398Z,20.53
2019-03-26T08:34:51.025Z,16.07
2019-03-26T08:40:17.316Z,19.50
2019-03-26T08:45:41.826Z,16.33
2019-03-26T08:51:07.705Z,14.13
2019-03-26T08:56:32.101Z,17.90
2019-03-26T09:01:56.284Z,18.50
2019-03-26T09:07:20.638Z,15.40
2019-03-26T09:12:45.989Z,15.43
2019-03-26T09:18:11.155Z,16.00
2019-03-26T09:23:35.473Z,16.43
2019-03-26T09:29:00.904Z,19.30
2019-03-26T09:34:26.493Z,17.00
2019-03-26T09:39:51.194Z,18.67
2019-03-26T09:45:16.537Z,16.40
2019-03-26T09:50:41.656Z,15.67
2019-03-26T09:56:06.186Z,14.17
2019-03-26T10:01:30.969Z,19.37
2019-03-26T10:06:56.137Z,13.23
2019-03-26T10:12:20.703Z,10.87
2019-03-26T10:17:45.890Z,19.33
2019-03-26T10:23:10.059Z,20.70
2019-03-26T10:28:35.094Z,18.00
2019-03-26T10:34:00.902Z,21.47
2019-03-26T10:39:26.068Z,12.37
2019-03-26T10:44:50.323Z,15.33
2019-03-26T10:50:15.293Z,17.47
2019-03-26T10:55:40.795Z,12.87
2019-03-26T11:01:06.212Z,18.10
2019-03-26T11:06:31.600Z,14.73
2019-03-26T11:11:57.134Z,17.37
2019-03-26T11:17:21.959Z,16.73
2019-03-26T11:22:47.394Z,15.97
2019-03-26T11:28:13.978Z,19.40
2019-03-26T11:33:39.538Z,17.27
2019-03-26T11:39:05.465Z,12.47
2019-03-26T11:44:30.846Z,8.80
2019-03-26T11:49:56.090Z,13.17
2019-03-26T11:55:21.964Z,17.50
2019-03-26T12:00:47.363Z,14.43
2019-03-26T12:06:12.349Z,12.83
2019-03-26T12:11:36.772Z,9.90
2019-03-26T12:17:01.537Z,16.13
2019-03-26T12:22:27.197Z,16.13
2019-03-26T12:27:51.346Z,17.53
2019-03-26T12:33:16.706Z,18.53
2019-03-26T12:38:43.026Z,17.97
2019-03-26T12:44:07.411Z,15.83
2019-03-26T12:49:31.836Z,17.53
2019-03-26T12:54:56.002Z,11.77
2019-03-26T13:00:24.237Z,11.13
2019-03-26T13:05:48.709Z,14.80
2019-03-26T13:11:17.098Z,15.03
2019-03-26T13:16:41.574Z,12.17
2019-03-26T13:22:06.621Z,15.77
2019-03-26T13:27:31.981Z,17.77
2019-03-26T13:32:57.487Z,8.67
2019-03-26T13:38:23.865Z,8.17
2019-03-26T13:43:48.898Z,10.73
2019-03-26T13:49:13.757Z,12.07
2019-03-26T13:54:38.913Z,13.63
2019-03-26T14:00:03.913Z,9.60
2019-03-26T14:05:29.467Z,10.00
2019-03-26T14:10:54.126Z,10.60
2019-03-26T14:16:19.231Z,8.60
2019-03-26T14:21:44.224Z,11.43
2019-03-26T14:27:08.553Z,14.43
2019-03-26T14:32:33.635Z,8.77
2019-03-26T14:37:58.149Z,10.00
2019-03-26T14:43:23.376Z,12.03
2019-03-26T14:48:47.741Z,9.93
2019-03-26T14:54:12.844Z,7.57
2019-03-26T14:59:37.860Z,8.00
2019-03-26T15:05:02.070Z,8.20
2019-03-26T15:10:27.432Z,12.73
2019-03-26T15:15:53.138Z,13.47
2019-03-26T15:21:18.327Z,12.43
2019-03-26T15:26:42.575Z,10.10
2019-03-26T15:32:07.958Z,7.67
2019-03-26T15:37:33.219Z,9.83
2019-03-26T15:42:57.671Z,14.00
2019-03-26T15:48:22.173Z,13.47
2019-03-26T15:53:46.560Z,11.43
2019-03-26T15:59:11.267Z,13.00
2019-03-26T16:04:36.155Z,11.93
2019-03-26T16:10:00.503Z,11.20
2019-03-26T16:15:24.843Z,11.77
2019-03-26T16:20:49.849Z,11.20
2019-03-26T16:26:14.726Z,10.87
2019-03-26T16:31:39.668Z,8.27
2019-03-26T16:37:04.108Z,10.93
2019-03-26T16:42:30.579Z,14.77
2019-03-26T16:47:55.420Z,15.00
2019-03-26T16:53:21.948Z,16.60
2019-03-26T16:58:46.731Z,10.37
2019-03-26T17:04:11.143Z,13.60
2019-03-26T17:09:36.498Z,13.63
2019-03-26T17:15:01.532Z,15.10
2019-03-26T17:20:26.036Z,13.60
2019-03-26T17:25:51.110Z,18.57
2019-03-26T17:31:19.063Z,20.67
2019-03-26T17:36:44.641Z,16.03
2019-03-26T17:42:17.090Z,13.30
2019-03-26T17:47:34.875Z,17.07
2019-03-26T17:52:59.151Z,13.63
2019-03-26T17:58:24.093Z,14.50
2019-03-26T18:03:50.456Z,14.77
2019-03-26T18:09:15.340Z,12.47
2019-03-26T18:14:40.947Z,11.20
2019-03-26T18:20:11.009Z,13.57
2019-03-26T18:25:35.914Z,11.97
2019-03-26T18:31:01.034Z,18.70
2019-03-26T18:36:25.602Z,13.30
2019-03-26T18:41:49.880Z,20.97
2019-03-26T18:47:14.085Z,17.93
2019-03-26T18:52:38.978Z,16.33
2019-03-26T18:58:03.783Z,18.17
2019-03-26T19:03:28.800Z,16.43
2019-03-26T19:08:53.945Z,11.57
2019-03-26T19:14:19.248Z,14.20
2019-03-26T19:19:43.890Z,14.50
2019-03-26T19:25:08.972Z,16.90
2019-03-26T19:30:34.094Z,15.30
2019-03-26T19:35:58.162Z,22.30
2019-03-26T19:41:22.427Z,13.77
2019-03-26T19:46:47.526Z,23.83
2019-03-26T19:52:11.963Z,17.37
2019-03-26T19:57:36.121Z,18.10
2019-03-26T20:03:00.285Z,21.37
2019-03-26T20:08:26.687Z,21.37
2019-03-26T20:13:51.423Z,18.53
2019-03-26T20:19:16.697Z,16.43
2019-03-26T20:24:41.967Z,18.07
2019-03-26T20:30:09.199Z,18.73
2019-03-26T20:35:34.159Z,17.50
2019-03-26T20:41:01.191Z,17.03
2019-03-26T20:46:26.449Z,19.60
2019-03-26T20:51:56.691Z,16.03
2019-03-26T20:57:21.247Z,18.40
2019-03-26T21:02:45.607Z,15.67
2019-03-26T21:08:10.984Z,12.47
2019-03-26T21:13:35.925Z,17.73
2019-03-26T21:19:00.382Z,20.50
2019-03-26T21:24:25.627Z,17.10
2019-03-26T21:29:50.523Z,15.53
2019-03-26T21:35:15.361Z,16.20
2019-03-26T21:40:40.646Z,14.90
2019-03-26T21:46:05.158Z,16.83
2019-03-26T21:51:29.208Z,16.87
2019-03-26T21:56:53.529Z,16.00
2019-03-26T22:02:18.072Z,16.27
2019-03-26T22:07:43.167Z,19.33
2019-03-26T22:13:07.524Z,16.30
2019-03-26T22:18:32.781Z,15.47
2019-03-26T22:23:58.436Z,16.27
2019-03-26T22:29:23.558Z,19.40
2019-03-26T22:34:49.111Z,16.47
2019-03-26T22:40:15.747Z,12.73
2019-03-26T22:45:40.854Z,16.40
2019-03-26T22:51:05.903Z,21.77
2019-03-26T22:56:31.271Z,15.20
2019-03-26T23:01:56.887Z,15.30
2019-03-26T23:07:21.385Z,15.50
2019-03-26T23:12:46.732Z,16.47
2019-03-26T23:18:16.599Z,11.63
2019-03-26T23:23:41.036Z,19.83
2019-03-26T23:29:08.067Z,16.43
2019-03-26T23:34:31.725Z,15.40
2019-03-26T23:39:56.126Z,15.73
2019-03-26T23:45:20.692Z,20.10
2019-03-26T23:50:45.485Z,25.43
2019-03-26T23:56:10.413Z,22.33
